sensor_id;sensor_type;location;lat;lon;timestamp;P1;durP1;ratioP1;P2;durP2;ratioP2
76208;SDS011;64990;51.698;-0.292;2023-07-20T00:00:07;3.60;;;0.80;;
76208;SDS011;64990;51.698;-0.292;2023-07-20T00:02:42;5.35;;;1.35;;
76208;SDS011;64990;51.698;-0.292;2023-07-20T00:05:09;0.85;;;0.75;;
76208;SDS011;64990;51.698;-0.292;2023-07-20T00:07:35;3.00;;;1.13;;
76208;SDS011;64990;51.698;-0.292;2023-07-20T00:10:01;7.63;;;1.60;;
76208;SDS011;64990;51.698;-0.292;2023-07-20T00:12:27;11.90;;;0.82;;
76208;SDS011;64990;51.698;-0.292;2023-07-20T00:15:02;2.33;;;1.58;;
76208;SDS011;64990;51.698;-0.292;2023-07-20T00:17:28;7.63;;;1.98;;
76208;SDS011;64990;51.698;-0.292;2023-07-20T00:19:54;1.73;;;0.77;;
76208;SDS011;64990;51.698;-0.292;2023-07-20T00:22:20;2.10;;;0.88;;
76208;SDS011;64990;51.698;-0.292;2023-07-20T00:24:46;4.35;;;1.10;;
76208;SDS011;64990;51.698;-0.292;2023-07-20T00:27:12;1.02;;;0.80;;
76208;SDS011;64990;51.698;-0.292;2023-07-20T00:29:38;1.23;;;1.13;;
76208;SDS011;64990;51.698;-0.292;2023-07-20T00:32:04;4.95;;;2.30;;
76208;SDS011;64990;51.698;-0.292;2023-07-20T00:34:40;2.95;;;0.82;;
76208;SDS011;64990;51.698;-0.292;2023-07-20T00:37:06;4.30;;;1.50;;
76208;SDS011;64990;51.698;-0.292;2023-07-20T00:39:32;3.40;;;1.42;;
76208;SDS011;64990;51.698;-0.292;2023-07-20T00:41:58;3.05;;;1.42;;
76208;SDS011;64990;51.698;-0.292;2023-07-20T00:44:25;4.53;;;1.10;;
76208;SDS011;64990;51.698;-0.292;2023-07-20T00:46:51;4.22;;;1.60;;
76208;SDS011;64990;51.698;-0.292;2023-07-20T00:49:17;3.60;;;2.08;;
76208;SDS011;64990;51.698;-0.292;2023-07-20T00:51:46;4.63;;;1.58;;
76208;SDS011;64990;51.698;-0.292;2023-07-20T00:54:13;6.85;;;1.83;;
76208;SDS011;64990;51.698;-0.292;2023-07-20T00:56:39;6.57;;;1.33;;
76208;SDS011;64990;51.698;-0.292;2023-07-20T00:59:05;26.75;;;2.08;;
76208;SDS011;64990;51.698;-0.292;2023-07-20T01:01:31;5.22;;;1.63;;
76208;SDS011;64990;51.698;-0.292;2023-07-20T01:03:57;4.28;;;1.50;;
76208;SDS011;64990;51.698;-0.292;2023-07-20T01:06:33;6.05;;;1.65;;
76208;SDS011;64990;51.698;-0.292;2023-07-20T01:14:12;5.60;;;1.98;;
76208;SDS011;64990;51.698;-0.292;2023-07-20T01:16:39;3.30;;;1.33;;
76208;SDS011;64990;51.698;-0.292;2023-07-20T01:19:05;5.68;;;1.98;;
76208;SDS011;64990;51.698;-0.292;2023-07-20T01:21:38;3.60;;;1.30;;
76208;SDS011;64990;51.698;-0.292;2023-07-20T01:32:21;3.95;;;2.03;;
76208;SDS011;64990;51.698;-0.292;2023-07-20T01:34:49;6.03;;;1.50;;
76208;SDS011;64990;51.698;-0.292;2023-07-20T01:37:18;4.72;;;2.08;;
76208;SDS011;64990;51.698;-0.292;2023-07-20T01:39:45;6.75;;;2.30;;
76208;SDS011;64990;51.698;-0.292;2023-07-20T01:42:11;1.38;;;1.27;;
76208;SDS011;64990;51.698;-0.292;2023-07-20T01:44:38;1.92;;;1.10;;
76208;SDS011;64990;51.698;-0.292;2023-07-20T01:47:04;5.10;;;1.63;;
76208;SDS011;64990;51.698;-0.292;2023-07-20T01:49:30;2.35;;;1.30;;
76208;SDS011;64990;51.698;-0.292;2023-07-20T01:51:56;3.33;;;1.52;;
76208;SDS011;64990;51.698;-0.292;2023-07-20T01:54:22;3.30;;;1.38;;
76208;SDS011;64990;51.698;-0.292;2023-07-20T01:56:48;12.00;;;2.13;;
76208;SDS011;64990;51.698;-0.292;2023-07-20T01:59:14;2.63;;;1.77;;
76208;SDS011;64990;51.698;-0.292;2023-07-20T02:01:40;2.67;;;1.60;;
76208;SDS011;64990;51.698;-0.292;2023-07-20T02:04:06;4.28;;;2.22;;
76208;SDS011;64990;51.698;-0.292;2023-07-20T02:06:32;4.45;;;1.83;;
76208;SDS011;64990;51.698;-0.292;2023-07-20T02:08:58;4.47;;;1.52;;
76208;SDS011;64990;51.698;-0.292;2023-07-20T02:11:24;2.97;;;1.75;;
76208;SDS011;64990;51.698;-0.292;2023-07-20T02:13:50;3.03;;;1.95;;
76208;SDS011;64990;51.698;-0.292;2023-07-20T02:16:16;1.35;;;1.25;;
76208;SDS011;64990;51.698;-0.292;2023-07-20T02:19:28;3.78;;;1.85;;
76208;SDS011;64990;51.698;-0.292;2023-07-20T02:21:31;8.98;;;2.35;;
76208;SDS011;64990;51.698;-0.292;2023-07-20T02:23:58;4.45;;;1.98;;
76208;SDS011;64990;51.698;-0.292;2023-07-20T02:26:24;4.18;;;2.00;;
76208;SDS011;64990;51.698;-0.292;2023-07-20T02:28:51;3.75;;;1.88;;
76208;SDS011;64990;51.698;-0.292;2023-07-20T02:31:17;2.72;;;1.42;;
76208;SDS011;64990;51.698;-0.292;2023-07-20T02:33:43;2.60;;;1.75;;
76208;SDS011;64990;51.698;-0.292;2023-07-20T02:36:09;5.55;;;1.92;;
76208;SDS011;64990;51.698;-0.292;2023-07-20T02:38:35;1.65;;;1.52;;
76208;SDS011;64990;51.698;-0.292;2023-07-20T02:41:01;3.03;;;1.40;;
76208;SDS011;64990;51.698;-0.292;2023-07-20T02:43:27;2.00;;;1.50;;
76208;SDS011;64990;51.698;-0.292;2023-07-20T02:45:53;7.72;;;2.50;;
76208;SDS011;64990;51.698;-0.292;2023-07-20T02:48:19;5.18;;;1.70;;
76208;SDS011;64990;51.698;-0.292;2023-07-20T02:50:45;6.35;;;1.90;;
76208;SDS011;64990;51.698;-0.292;2023-07-20T02:53:11;2.33;;;1.50;;
76208;SDS011;64990;51.698;-0.292;2023-07-20T02:55:37;9.50;;;1.42;;
76208;SDS011;64990;51.698;-0.292;2023-07-20T02:58:03;1.90;;;1.30;;
76208;SDS011;64990;51.698;-0.292;2023-07-20T03:00:29;5.75;;;1.83;;
76208;SDS011;64990;51.698;-0.292;2023-07-20T03:02:55;2.45;;;1.45;;
76208;SDS011;64990;51.698;-0.292;2023-07-20T03:05:22;5.25;;;1.60;;
76208;SDS011;64990;51.698;-0.292;2023-07-20T03:07:50;2.83;;;1.45;;
76208;SDS011;64990;51.698;-0.292;2023-07-20T03:10:16;3.10;;;1.67;;
76208;SDS011;64990;51.698;-0.292;2023-07-20T03:12:42;3.75;;;1.30;;
76208;SDS011;64990;51.698;-0.292;2023-07-20T03:15:08;2.85;;;1.10;;
76208;SDS011;64990;51.698;-0.292;2023-07-20T03:17:35;2.05;;;1.23;;
76208;SDS011;64990;51.698;-0.292;2023-07-20T03:20:01;6.60;;;1.58;;
76208;SDS011;64990;51.698;-0.292;2023-07-20T03:22:27;2.47;;;1.20;;
76208;SDS011;64990;51.698;-0.292;2023-07-20T03:24:54;5.38;;;1.65;;
76208;SDS011;64990;51.698;-0.292;2023-07-20T03:27:20;2.10;;;1.65;;
76208;SDS011;64990;51.698;-0.292;2023-07-20T03:29:46;2.35;;;1.50;;
76208;SDS011;64990;51.698;-0.292;2023-07-20T03:32:12;2.70;;;1.17;;
76208;SDS011;64990;51.698;-0.292;2023-07-20T03:34:38;3.78;;;2.47;;
76208;SDS011;64990;51.698;-0.292;2023-07-20T03:37:04;8.02;;;1.92;;
76208;SDS011;64990;51.698;-0.292;2023-07-20T03:39:30;3.10;;;1.70;;
76208;SDS011;64990;51.698;-0.292;2023-07-20T03:41:57;2.70;;;1.42;;
76208;SDS011;64990;51.698;-0.292;2023-07-20T03:44:24;10.43;;;2.92;;
76208;SDS011;64990;51.698;-0.292;2023-07-20T03:46:50;4.43;;;2.13;;
76208;SDS011;64990;51.698;-0.292;2023-07-20T03:49:16;1.77;;;1.50;;
76208;SDS011;64990;51.698;-0.292;2023-07-20T03:51:43;5.13;;;2.65;;
76208;SDS011;64990;51.698;-0.292;2023-07-20T03:54:09;6.00;;;2.20;;
76208;SDS011;64990;51.698;-0.292;2023-07-20T03:56:34;5.50;;;1.58;;
76208;SDS011;64990;51.698;-0.292;2023-07-20T03:59:01;4.15;;;1.55;;
76208;SDS011;64990;51.698;-0.292;2023-07-20T04:01:27;4.60;;;2.13;;
76208;SDS011;64990;51.698;-0.292;2023-07-20T04:03:53;3.03;;;1.95;;
76208;SDS011;64990;51.698;-0.292;2023-07-20T04:06:20;10.75;;;2.47;;
76208;SDS011;64990;51.698;-0.292;2023-07-20T04:08:46;2.47;;;1.70;;
76208;SDS011;64990;51.698;-0.292;2023-07-20T04:11:12;4.00;;;1.52;;
76208;SDS011;64990;51.698;-0.292;2023-07-20T04:13:38;5.55;;;2.05;;
76208;SDS011;64990;51.698;-0.292;2023-07-20T04:16:04;5.00;;;2.03;;
76208;SDS011;64990;51.698;-0.292;2023-07-20T04:18:30;5.68;;;1.88;;
76208;SDS011;64990;51.698;-0.292;2023-07-20T04:20:56;7.80;;;2.47;;
76208;SDS011;64990;51.698;-0.292;2023-07-20T04:23:22;10.00;;;2.80;;
76208;SDS011;64990;51.698;-0.292;2023-07-20T04:25:48;4.72;;;2.05;;
76208;SDS011;64990;51.698;-0.292;2023-07-20T04:28:14;5.70;;;2.40;;
76208;SDS011;64990;51.698;-0.292;2023-07-20T04:30:40;10.02;;;2.17;;
76208;SDS011;64990;51.698;-0.292;2023-07-20T04:33:06;5.25;;;2.20;;
76208;SDS011;64990;51.698;-0.292;2023-07-20T04:38:14;2.35;;;1.48;;
76208;SDS011;64990;51.698;-0.292;2023-07-20T04:40:43;2.20;;;1.63;;
76208;SDS011;64990;51.698;-0.292;2023-07-20T04:43:09;4.05;;;2.00;;
76208;SDS011;64990;51.698;-0.292;2023-07-20T04:45:35;2.75;;;1.75;;
76208;SDS011;64990;51.698;-0.292;2023-07-20T04:48:01;7.90;;;2.50;;
76208;SDS011;64990;51.698;-0.292;2023-07-20T04:50:27;5.72;;;2.15;;
76208;SDS011;64990;51.698;-0.292;2023-07-20T04:52:53;4.60;;;2.20;;
76208;SDS011;64990;51.698;-0.292;2023-07-20T04:56:05;11.38;;;2.67;;
76208;SDS011;64990;51.698;-0.292;2023-07-20T04:58:05;2.97;;;1.63;;
76208;SDS011;64990;51.698;-0.292;2023-07-20T05:00:32;9.38;;;2.65;;
76208;SDS011;64990;51.698;-0.292;2023-07-20T05:02:58;3.47;;;2.03;;
76208;SDS011;64990;51.698;-0.292;2023-07-20T05:05:24;5.03;;;2.17;;
76208;SDS011;64990;51.698;-0.292;2023-07-20T05:07:50;7.45;;;1.77;;
76208;SDS011;64990;51.698;-0.292;2023-07-20T05:10:16;5.38;;;2.33;;
76208;SDS011;64990;51.698;-0.292;2023-07-20T05:12:42;7.05;;;2.10;;
76208;SDS011;64990;51.698;-0.292;2023-07-20T05:15:09;8.00;;;2.47;;
76208;SDS011;64990;51.698;-0.292;2023-07-20T05:17:35;21.35;;;3.00;;
76208;SDS011;64990;51.698;-0.292;2023-07-20T05:20:01;3.78;;;1.83;;
76208;SDS011;64990;51.698;-0.292;2023-07-20T05:22:29;4.10;;;2.40;;
76208;SDS011;64990;51.698;-0.292;2023-07-20T05:24:55;3.10;;;2.15;;
76208;SDS011;64990;51.698;-0.292;2023-07-20T05:27:21;3.08;;;2.10;;
76208;SDS011;64990;51.698;-0.292;2023-07-20T05:29:47;2.75;;;2.25;;
76208;SDS011;64990;51.698;-0.292;2023-07-20T05:32:13;10.43;;;2.22;;
76208;SDS011;64990;51.698;-0.292;2023-07-20T05:34:39;4.10;;;2.67;;
76208;SDS011;64990;51.698;-0.292;2023-07-20T05:37:05;6.60;;;1.95;;
76208;SDS011;64990;51.698;-0.292;2023-07-20T05:39:32;7.43;;;2.90;;
76208;SDS011;64990;51.698;-0.292;2023-07-20T05:41:58;8.23;;;2.20;;
76208;SDS011;64990;51.698;-0.292;2023-07-20T05:44:24;6.13;;;2.80;;
76208;SDS011;64990;51.698;-0.292;2023-07-20T05:46:50;9.05;;;3.42;;
76208;SDS011;64990;51.698;-0.292;2023-07-20T05:49:16;9.32;;;2.92;;
76208;SDS011;64990;51.698;-0.292;2023-07-20T05:51:42;6.65;;;2.72;;
76208;SDS011;64990;51.698;-0.292;2023-07-20T05:54:08;9.13;;;1.90;;
76208;SDS011;64990;51.698;-0.292;2023-07-20T05:56:34;5.28;;;2.63;;
76208;SDS011;64990;51.698;-0.292;2023-07-20T05:59:00;7.05;;;2.45;;
76208;SDS011;64990;51.698;-0.292;2023-07-20T06:01:26;3.30;;;2.10;;
76208;SDS011;64990;51.698;-0.292;2023-07-20T06:03:53;3.97;;;2.58;;
76208;SDS011;64990;51.698;-0.292;2023-07-20T06:06:19;6.45;;;3.08;;
76208;SDS011;64990;51.698;-0.292;2023-07-20T06:08:45;7.25;;;3.13;;
76208;SDS011;64990;51.698;-0.292;2023-07-20T06:11:11;9.93;;;2.20;;
76208;SDS011;64990;51.698;-0.292;2023-07-20T06:13:58;4.30;;;1.60;;
76208;SDS011;64990;51.698;-0.292;2023-07-20T06:16:24;3.90;;;2.85;;
76208;SDS011;64990;51.698;-0.292;2023-07-20T06:18:50;3.72;;;2.72;;
76208;SDS011;64990;51.698;-0.292;2023-07-20T06:21:16;4.95;;;2.28;;
76208;SDS011;64990;51.698;-0.292;2023-07-20T06:23:42;7.30;;;2.00;;
76208;SDS011;64990;51.698;-0.292;2023-07-20T06:26:08;7.82;;;1.80;;
76208;SDS011;64990;51.698;-0.292;2023-07-20T06:28:34;6.50;;;3.40;;
76208;SDS011;64990;51.698;-0.292;2023-07-20T06:31:01;5.90;;;2.40;;
76208;SDS011;64990;51.698;-0.292;2023-07-20T06:33:28;5.13;;;2.40;;
76208;SDS011;64990;51.698;-0.292;2023-07-20T06:35:54;8.30;;;2.80;;
76208;SDS011;64990;51.698;-0.292;2023-07-20T06:38:22;3.78;;;2.20;;
76208;SDS011;64990;51.698;-0.292;2023-07-20T06:40:48;5.60;;;2.63;;
76208;SDS011;64990;51.698;-0.292;2023-07-20T06:43:15;3.67;;;2.05;;
76208;SDS011;64990;51.698;-0.292;2023-07-20T06:45:41;3.72;;;2.92;;
76208;SDS011;64990;51.698;-0.292;2023-07-20T06:48:07;5.57;;;2.80;;
76208;SDS011;64990;51.698;-0.292;2023-07-20T06:50:33;9.27;;;2.85;;
76208;SDS011;64990;51.698;-0.292;2023-07-20T06:52:59;3.22;;;2.17;;
76208;SDS011;64990;51.698;-0.292;2023-07-20T06:55:28;6.45;;;2.40;;
76208;SDS011;64990;51.698;-0.292;2023-07-20T06:57:54;6.30;;;2.13;;
76208;SDS011;64990;51.698;-0.292;2023-07-20T07:00:20;7.47;;;2.22;;
76208;SDS011;64990;51.698;-0.292;2023-07-20T07:02:46;4.68;;;1.98;;
76208;SDS011;64990;51.698;-0.292;2023-07-20T07:05:12;7.45;;;2.20;;
76208;SDS011;64990;51.698;-0.292;2023-07-20T07:07:40;6.43;;;2.58;;
76208;SDS011;64990;51.698;-0.292;2023-07-20T07:10:06;2.92;;;1.92;;
76208;SDS011;64990;51.698;-0.292;2023-07-20T07:12:32;11.70;;;2.05;;
76208;SDS011;64990;51.698;-0.292;2023-07-20T07:14:58;4.75;;;2.65;;
76208;SDS011;64990;51.698;-0.292;2023-07-20T07:20:11;5.85;;;2.40;;
76208;SDS011;64990;51.698;-0.292;2023-07-20T07:22:37;4.28;;;1.90;;
76208;SDS011;64990;51.698;-0.292;2023-07-20T07:25:03;10.73;;;1.80;;
76208;SDS011;64990;51.698;-0.292;2023-07-20T07:27:30;4.00;;;1.80;;
76208;SDS011;64990;51.698;-0.292;2023-07-20T07:30:04;5.13;;;1.70;;
76208;SDS011;64990;51.698;-0.292;2023-07-20T07:32:31;3.80;;;2.00;;
76208;SDS011;64990;51.698;-0.292;2023-07-20T07:34:57;7.95;;;2.20;;
76208;SDS011;64990;51.698;-0.292;2023-07-20T07:37:25;3.90;;;1.38;;
76208;SDS011;64990;51.698;-0.292;2023-07-20T07:39:53;3.90;;;1.92;;
76208;SDS011;64990;51.698;-0.292;2023-07-20T07:42:19;5.05;;;2.50;;
76208;SDS011;64990;51.698;-0.292;2023-07-20T07:44:45;4.32;;;2.10;;
76208;SDS011;64990;51.698;-0.292;2023-07-20T07:47:11;5.65;;;2.13;;
76208;SDS011;64990;51.698;-0.292;2023-07-20T07:49:37;6.85;;;1.50;;
76208;SDS011;64990;51.698;-0.292;2023-07-20T07:52:03;5.57;;;2.90;;
76208;SDS011;64990;51.698;-0.292;2023-07-20T07:54:29;3.13;;;2.45;;
76208;SDS011;64990;51.698;-0.292;2023-07-20T07:56:56;5.15;;;1.50;;
76208;SDS011;64990;51.698;-0.292;2023-07-20T07:59:22;6.00;;;2.22;;
76208;SDS011;64990;51.698;-0.292;2023-07-20T08:01:48;8.90;;;3.85;;
76208;SDS011;64990;51.698;-0.292;2023-07-20T08:04:14;15.38;;;2.92;;
76208;SDS011;64990;51.698;-0.292;2023-07-20T08:06:40;3.88;;;2.38;;
76208;SDS011;64990;51.698;-0.292;2023-07-20T08:09:06;2.95;;;2.60;;
76208;SDS011;64990;51.698;-0.292;2023-07-20T08:11:32;5.80;;;2.83;;
76208;SDS011;64990;51.698;-0.292;2023-07-20T08:14:01;4.60;;;2.08;;
76208;SDS011;64990;51.698;-0.292;2023-07-20T08:16:28;4.22;;;1.70;;
76208;SDS011;64990;51.698;-0.292;2023-07-20T08:18:54;2.80;;;1.95;;
76208;SDS011;64990;51.698;-0.292;2023-07-20T08:21:20;6.07;;;1.65;;
76208;SDS011;64990;51.698;-0.292;2023-07-20T08:23:46;8.50;;;2.08;;
76208;SDS011;64990;51.698;-0.292;2023-07-20T08:26:12;4.18;;;2.45;;
76208;SDS011;64990;51.698;-0.292;2023-07-20T08:28:38;4.10;;;1.73;;
76208;SDS011;64990;51.698;-0.292;2023-07-20T08:31:05;4.15;;;2.13;;
76208;SDS011;64990;51.698;-0.292;2023-07-20T08:33:32;2.05;;;1.55;;
76208;SDS011;64990;51.698;-0.292;2023-07-20T08:35:59;4.07;;;1.98;;
76208;SDS011;64990;51.698;-0.292;2023-07-20T08:38:26;5.20;;;2.13;;
76208;SDS011;64990;51.698;-0.292;2023-07-20T08:40:52;3.08;;;1.60;;
76208;SDS011;64990;51.698;-0.292;2023-07-20T08:43:22;6.15;;;1.40;;
76208;SDS011;64990;51.698;-0.292;2023-07-20T08:45:52;2.88;;;1.50;;
76208;SDS011;64990;51.698;-0.292;2023-07-20T08:48:20;4.03;;;2.00;;
76208;SDS011;64990;51.698;-0.292;2023-07-20T08:50:47;2.92;;;1.73;;
76208;SDS011;64990;51.698;-0.292;2023-07-20T08:53:34;5.13;;;1.92;;
76208;SDS011;64990;51.698;-0.292;2023-07-20T08:56:01;8.25;;;2.50;;
76208;SDS011;64990;51.698;-0.292;2023-07-20T08:58:31;1.83;;;0.95;;
76208;SDS011;64990;51.698;-0.292;2023-07-20T09:00:58;8.70;;;1.75;;
76208;SDS011;64990;51.698;-0.292;2023-07-20T09:03:25;2.45;;;1.45;;
76208;SDS011;64990;51.698;-0.292;2023-07-20T09:05:51;8.35;;;1.30;;
76208;SDS011;64990;51.698;-0.292;2023-07-20T09:08:18;1.63;;;1.30;;
76208;SDS011;64990;51.698;-0.292;2023-07-20T09:10:44;3.88;;;1.88;;
76208;SDS011;64990;51.698;-0.292;2023-07-20T09:13:13;4.45;;;1.85;;
76208;SDS011;64990;51.698;-0.292;2023-07-20T09:15:39;3.38;;;1.33;;
76208;SDS011;64990;51.698;-0.292;2023-07-20T09:18:11;4.68;;;1.50;;
76208;SDS011;64990;51.698;-0.292;2023-07-20T09:20:37;3.55;;;1.50;;
76208;SDS011;64990;51.698;-0.292;2023-07-20T09:23:06;11.95;;;2.95;;
76208;SDS011;64990;51.698;-0.292;2023-07-20T09:25:32;2.50;;;1.88;;
76208;SDS011;64990;51.698;-0.292;2023-07-20T09:28:01;4.20;;;1.98;;
76208;SDS011;64990;51.698;-0.292;2023-07-20T09:30:28;4.93;;;2.13;;
76208;SDS011;64990;51.698;-0.292;2023-07-20T09:32:54;8.55;;;1.75;;
76208;SDS011;64990;51.698;-0.292;2023-07-20T09:35:20;3.00;;;1.55;;
76208;SDS011;64990;51.698;-0.292;2023-07-20T09:37:49;2.97;;;1.25;;
76208;SDS011;64990;51.698;-0.292;2023-07-20T09:40:17;5.40;;;1.95;;
76208;SDS011;64990;51.698;-0.292;2023-07-20T09:42:43;6.90;;;1.10;;
76208;SDS011;64990;51.698;-0.292;2023-07-20T09:45:09;2.20;;;1.55;;
76208;SDS011;64990;51.698;-0.292;2023-07-20T09:47:36;2.95;;;1.45;;
76208;SDS011;64990;51.698;-0.292;2023-07-20T09:50:06;4.60;;;2.13;;
76208;SDS011;64990;51.698;-0.292;2023-07-20T09:52:38;5.95;;;1.88;;
76208;SDS011;64990;51.698;-0.292;2023-07-20T09:55:06;4.68;;;1.77;;
76208;SDS011;64990;51.698;-0.292;2023-07-20T09:57:32;2.33;;;1.55;;
76208;SDS011;64990;51.698;-0.292;2023-07-20T09:59:59;3.72;;;1.58;;
76208;SDS011;64990;51.698;-0.292;2023-07-20T10:02:28;5.70;;;1.17;;
76208;SDS011;64990;51.698;-0.292;2023-07-20T10:05:04;3.65;;;1.88;;
76208;SDS011;64990;51.698;-0.292;2023-07-20T10:07:33;2.00;;;0.90;;
76208;SDS011;64990;51.698;-0.292;2023-07-20T10:10:01;2.50;;;1.27;;
76208;SDS011;64990;51.698;-0.292;2023-07-20T10:12:31;4.63;;;1.52;;
76208;SDS011;64990;51.698;-0.292;2023-07-20T10:15:19;4.28;;;1.30;;
76208;SDS011;64990;51.698;-0.292;2023-07-20T10:18:02;6.38;;;1.20;;
76208;SDS011;64990;51.698;-0.292;2023-07-20T10:20:28;4.03;;;1.30;;
76208;SDS011;64990;51.698;-0.292;2023-07-20T10:22:55;1.38;;;1.00;;
76208;SDS011;64990;51.698;-0.292;2023-07-20T10:25:23;3.65;;;1.10;;
76208;SDS011;64990;51.698;-0.292;2023-07-20T10:27:56;2.03;;;0.90;;
76208;SDS011;64990;51.698;-0.292;2023-07-20T10:30:23;7.50;;;2.13;;
76208;SDS011;64990;51.698;-0.292;2023-07-20T10:32:50;3.35;;;0.93;;
76208;SDS011;64990;51.698;-0.292;2023-07-20T10:35:18;1.38;;;0.85;;
76208;SDS011;64990;51.698;-0.292;2023-07-20T10:40:28;3.55;;;1.23;;
76208;SDS011;64990;51.698;-0.292;2023-07-20T10:43:05;7.57;;;1.73;;
76208;SDS011;64990;51.698;-0.292;2023-07-20T10:45:42;1.02;;;0.93;;
76208;SDS011;64990;51.698;-0.292;2023-07-20T10:48:15;3.13;;;1.08;;
76208;SDS011;64990;51.698;-0.292;2023-07-20T10:50:41;1.00;;;0.80;;
76208;SDS011;64990;51.698;-0.292;2023-07-20T10:55:37;4.00;;;1.23;;
76208;SDS011;64990;51.698;-0.292;2023-07-20T10:58:09;4.05;;;1.38;;
76208;SDS011;64990;51.698;-0.292;2023-07-20T11:00:36;1.95;;;0.95;;
76208;SDS011;64990;51.698;-0.292;2023-07-20T11:03:02;9.30;;;1.63;;
76208;SDS011;64990;51.698;-0.292;2023-07-20T11:05:32;3.53;;;1.08;;
76208;SDS011;64990;51.698;-0.292;2023-07-20T11:07:59;5.68;;;1.35;;
76208;SDS011;64990;51.698;-0.292;2023-07-20T11:10:25;0.93;;;0.60;;
76208;SDS011;64990;51.698;-0.292;2023-07-20T11:18:21;1.73;;;0.98;;
76208;SDS011;64990;51.698;-0.292;2023-07-20T11:20:51;1.33;;;0.77;;
76208;SDS011;64990;51.698;-0.292;2023-07-20T11:23:17;0.95;;;0.70;;
76208;SDS011;64990;51.698;-0.292;2023-07-20T11:25:45;3.60;;;1.25;;
76208;SDS011;64990;51.698;-0.292;2023-07-20T11:28:12;4.63;;;1.52;;
76208;SDS011;64990;51.698;-0.292;2023-07-20T11:30:38;0.70;;;0.70;;
76208;SDS011;64990;51.698;-0.292;2023-07-20T11:33:10;1.38;;;0.82;;
76208;SDS011;64990;51.698;-0.292;2023-07-20T11:35:41;2.42;;;1.23;;
76208;SDS011;64990;51.698;-0.292;2023-07-20T11:38:08;6.72;;;1.10;;
76208;SDS011;64990;51.698;-0.292;2023-07-20T11:40:34;5.75;;;0.77;;
76208;SDS011;64990;51.698;-0.292;2023-07-20T11:43:00;2.47;;;0.85;;
76208;SDS011;64990;51.698;-0.292;2023-07-20T11:45:26;1.60;;;0.75;;
76208;SDS011;64990;51.698;-0.292;2023-07-20T11:47:52;4.28;;;1.20;;
76208;SDS011;64990;51.698;-0.292;2023-07-20T11:50:19;7.30;;;0.70;;
76208;SDS011;64990;51.698;-0.292;2023-07-20T11:52:45;6.10;;;1.25;;
76208;SDS011;64990;51.698;-0.292;2023-07-20T11:55:11;2.22;;;0.77;;
76208;SDS011;64990;51.698;-0.292;2023-07-20T11:57:37;1.90;;;0.95;;
76208;SDS011;64990;51.698;-0.292;2023-07-20T12:00:04;2.90;;;0.73;;
76208;SDS011;64990;51.698;-0.292;2023-07-20T12:02:35;1.45;;;0.73;;
76208;SDS011;64990;51.698;-0.292;2023-07-20T12:05:03;3.17;;;0.98;;
76208;SDS011;64990;51.698;-0.292;2023-07-20T12:07:32;2.55;;;1.23;;
76208;SDS011;64990;51.698;-0.292;2023-07-20T12:10:07;1.20;;;0.50;;
76208;SDS011;64990;51.698;-0.292;2023-07-20T12:12:34;2.22;;;0.82;;
76208;SDS011;64990;51.698;-0.292;2023-07-20T12:15:16;4.18;;;0.68;;
76208;SDS011;64990;51.698;-0.292;2023-07-20T12:17:43;5.35;;;0.82;;
76208;SDS011;64990;51.698;-0.292;2023-07-20T12:20:09;4.65;;;0.60;;
76208;SDS011;64990;51.698;-0.292;2023-07-20T12:22:43;4.57;;;0.65;;
76208;SDS011;64990;51.698;-0.292;2023-07-20T12:25:09;3.33;;;0.52;;
76208;SDS011;64990;51.698;-0.292;2023-07-20T12:27:38;2.95;;;0.85;;
76208;SDS011;64990;51.698;-0.292;2023-07-20T12:30:05;1.33;;;0.52;;
76208;SDS011;64990;51.698;-0.292;2023-07-20T12:32:32;1.60;;;0.70;;
76208;SDS011;64990;51.698;-0.292;2023-07-20T12:34:58;1.67;;;0.60;;
76208;SDS011;64990;51.698;-0.292;2023-07-20T12:37:25;1.65;;;0.85;;
76208;SDS011;64990;51.698;-0.292;2023-07-20T12:39:52;0.80;;;0.80;;
76208;SDS011;64990;51.698;-0.292;2023-07-20T12:42:18;1.15;;;0.70;;
76208;SDS011;64990;51.698;-0.292;2023-07-20T12:44:44;49.28;;;1.95;;
76208;SDS011;64990;51.698;-0.292;2023-07-20T12:47:10;3.33;;;1.20;;
76208;SDS011;64990;51.698;-0.292;2023-07-20T12:49:36;7.68;;;1.50;;
76208;SDS011;64990;51.698;-0.292;2023-07-20T12:52:03;0.95;;;0.50;;
76208;SDS011;64990;51.698;-0.292;2023-07-20T12:54:29;1.48;;;0.88;;
76208;SDS011;64990;51.698;-0.292;2023-07-20T12:56:55;4.65;;;0.98;;
76208;SDS011;64990;51.698;-0.292;2023-07-20T12:59:21;0.60;;;0.50;;
76208;SDS011;64990;51.698;-0.292;2023-07-20T13:01:47;0.68;;;0.50;;
76208;SDS011;64990;51.698;-0.292;2023-07-20T13:04:13;0.90;;;0.45;;
76208;SDS011;64990;51.698;-0.292;2023-07-20T13:06:39;1.00;;;0.68;;
76208;SDS011;64990;51.698;-0.292;2023-07-20T13:09:06;0.77;;;0.60;;
76208;SDS011;64990;51.698;-0.292;2023-07-20T13:11:33;2.70;;;2.00;;
76208;SDS011;64990;51.698;-0.292;2023-07-20T13:13:59;3.67;;;1.10;;
76208;SDS011;64990;51.698;-0.292;2023-07-20T13:16:25;1.40;;;0.82;;
76208;SDS011;64990;51.698;-0.292;2023-07-20T13:18:51;2.05;;;1.23;;
76208;SDS011;64990;51.698;-0.292;2023-07-20T13:21:18;2.40;;;0.93;;
76208;SDS011;64990;51.698;-0.292;2023-07-20T13:23:47;1.75;;;0.77;;
76208;SDS011;64990;51.698;-0.292;2023-07-20T13:26:13;1.38;;;0.98;;
76208;SDS011;64990;51.698;-0.292;2023-07-20T13:28:39;2.83;;;1.05;;
76208;SDS011;64990;51.698;-0.292;2023-07-20T13:31:05;1.23;;;1.05;;
76208;SDS011;64990;51.698;-0.292;2023-07-20T13:33:33;0.52;;;0.50;;
76208;SDS011;64990;51.698;-0.292;2023-07-20T13:36:00;1.42;;;0.93;;
76208;SDS011;64990;51.698;-0.292;2023-07-20T13:38:26;1.90;;;0.98;;
76208;SDS011;64990;51.698;-0.292;2023-07-20T13:40:52;3.40;;;1.00;;
76208;SDS011;64990;51.698;-0.292;2023-07-20T13:43:18;2.70;;;1.05;;
76208;SDS011;64990;51.698;-0.292;2023-07-20T13:45:44;7.05;;;1.40;;
76208;SDS011;64990;51.698;-0.292;2023-07-20T13:48:10;7.03;;;0.95;;
76208;SDS011;64990;51.698;-0.292;2023-07-20T13:50:36;5.05;;;0.85;;
76208;SDS011;64990;51.698;-0.292;2023-07-20T13:53:02;4.55;;;0.98;;
76208;SDS011;64990;51.698;-0.292;2023-07-20T13:55:29;4.18;;;1.42;;
76208;SDS011;64990;51.698;-0.292;2023-07-20T13:57:56;5.13;;;1.60;;
76208;SDS011;64990;51.698;-0.292;2023-07-20T14:00:25;4.18;;;1.45;;
76208;SDS011;64990;51.698;-0.292;2023-07-20T14:02:55;4.88;;;1.75;;
76208;SDS011;64990;51.698;-0.292;2023-07-20T14:05:21;2.72;;;1.35;;
76208;SDS011;64990;51.698;-0.292;2023-07-20T14:07:47;4.85;;;1.10;;
76208;SDS011;64990;51.698;-0.292;2023-07-20T14:10:15;12.13;;;1.50;;
76208;SDS011;64990;51.698;-0.292;2023-07-20T14:12:41;3.25;;;1.10;;
76208;SDS011;64990;51.698;-0.292;2023-07-20T14:15:07;6.50;;;1.35;;
76208;SDS011;64990;51.698;-0.292;2023-07-20T14:17:33;1.15;;;0.88;;
76208;SDS011;64990;51.698;-0.292;2023-07-20T14:19:59;3.03;;;1.05;;
76208;SDS011;64990;51.698;-0.292;2023-07-20T14:22:25;2.17;;;0.88;;
76208;SDS011;64990;51.698;-0.292;2023-07-20T14:24:51;1.60;;;1.17;;
76208;SDS011;64990;51.698;-0.292;2023-07-20T14:27:17;2.28;;;0.85;;
76208;SDS011;64990;51.698;-0.292;2023-07-20T14:30:28;0.73;;;0.50;;
76208;SDS011;64990;51.698;-0.292;2023-07-20T14:32:29;3.78;;;0.82;;
76208;SDS011;64990;51.698;-0.292;2023-07-20T14:34:56;8.02;;;0.80;;
76208;SDS011;64990;51.698;-0.292;2023-07-20T14:37:22;0.57;;;0.50;;
76208;SDS011;64990;51.698;-0.292;2023-07-20T14:39:49;5.60;;;0.93;;
76208;SDS011;64990;51.698;-0.292;2023-07-20T14:42:15;0.98;;;0.60;;
76208;SDS011;64990;51.698;-0.292;2023-07-20T14:44:43;2.30;;;1.20;;
76208;SDS011;64990;51.698;-0.292;2023-07-20T14:47:09;1.75;;;0.65;;
76208;SDS011;64990;51.698;-0.292;2023-07-20T14:49:35;3.58;;;1.00;;
76208;SDS011;64990;51.698;-0.292;2023-07-20T14:52:01;1.02;;;0.40;;
76208;SDS011;64990;51.698;-0.292;2023-07-20T14:54:28;1.83;;;0.85;;
76208;SDS011;64990;51.698;-0.292;2023-07-20T14:56:54;0.47;;;0.47;;
76208;SDS011;64990;51.698;-0.292;2023-07-20T14:59:21;4.30;;;0.90;;
76208;SDS011;64990;51.698;-0.292;2023-07-20T15:01:47;0.68;;;0.65;;